sensor_id;sensor_type;location;lat;lon;timestamp;temperature;humidity
18613;DHT22;9436;52.152;21.032;2022-08-19T00:00:22;23.70;99.90
18613;DHT22;9436;52.152;21.032;2022-08-19T00:02:49;23.60;99.90
18613;DHT22;9436;52.152;21.032;2022-08-19T00:05:17;23.70;99.90
18613;DHT22;9436;52.152;21.032;2022-08-19T00:07:44;23.60;99.90
18613;DHT22;9436;52.152;21.032;2022-08-19T00:10:14;23.60;99.90
18613;DHT22;9436;52.152;21.032;2022-08-19T00:12:42;23.60;99.90
18613;DHT22;9436;52.152;21.032;2022-08-19T00:15:12;23.50;99.90
18613;DHT22;9436;52.152;21.032;2022-08-19T00:17:41;23.50;99.90
18613;DHT22;9436;52.152;21.032;2022-08-19T00:20:10;23.50;99.90
18613;DHT22;9436;52.152;21.032;2022-08-19T00:22:37;23.50;99.90
18613;DHT22;9436;52.152;21.032;2022-08-19T00:25:07;23.50;99.90
18613;DHT22;9436;52.152;21.032;2022-08-19T00:27:36;23.50;99.90
18613;DHT22;9436;52.152;21.032;2022-08-19T00:30:04;23.50;99.90
18613;DHT22;9436;52.152;21.032;2022-08-19T00:32:31;23.50;99.90
18613;DHT22;9436;52.152;21.032;2022-08-19T00:34:59;23.50;99.90
18613;DHT22;9436;52.152;21.032;2022-08-19T00:37:27;23.50;99.90
18613;DHT22;9436;52.152;21.032;2022-08-19T00:39:54;23.50;99.90
18613;DHT22;9436;52.152;21.032;2022-08-19T00:42:22;23.50;99.90
18613;DHT22;9436;52.152;21.032;2022-08-19T00:44:50;23.50;99.90
18613;DHT22;9436;52.152;21.032;2022-08-19T00:47:17;23.50;99.90
18613;DHT22;9436;52.152;21.032;2022-08-19T00:49:47;23.40;99.90
18613;DHT22;9436;52.152;21.032;2022-08-19T00:52:20;23.40;99.90
18613;DHT22;9436;52.152;21.032;2022-08-19T00:54:48;23.40;99.90
18613;DHT22;9436;52.152;21.032;2022-08-19T00:57:19;23.40;99.90
18613;DHT22;9436;52.152;21.032;2022-08-19T00:59:54;23.40;99.90
18613;DHT22;9436;52.152;21.032;2022-08-19T01:02:23;23.40;99.90
18613;DHT22;9436;52.152;21.032;2022-08-19T01:04:50;23.40;99.90
18613;DHT22;9436;52.152;21.032;2022-08-19T01:07:17;23.40;99.90
18613;DHT22;9436;52.152;21.032;2022-08-19T01:09:44;23.40;99.90
18613;DHT22;9436;52.152;21.032;2022-08-19T01:12:11;23.40;99.90
18613;DHT22;9436;52.152;21.032;2022-08-19T01:14:39;23.40;99.90
18613;DHT22;9436;52.152;21.032;2022-08-19T01:17:08;23.40;99.90
18613;DHT22;9436;52.152;21.032;2022-08-19T01:19:38;23.30;99.90
18613;DHT22;9436;52.152;21.032;2022-08-19T01:22:10;23.20;99.90
18613;DHT22;9436;52.152;21.032;2022-08-19T01:24:39;23.20;99.90
18613;DHT22;9436;52.152;21.032;2022-08-19T01:27:06;23.20;99.90
18613;DHT22;9436;52.152;21.032;2022-08-19T01:29:34;23.10;99.90
18613;DHT22;9436;52.152;21.032;2022-08-19T01:32:03;23.10;99.90
18613;DHT22;9436;52.152;21.032;2022-08-19T01:34:31;23.10;99.90
18613;DHT22;9436;52.152;21.032;2022-08-19T01:36:59;23.10;99.90
18613;DHT22;9436;52.152;21.032;2022-08-19T01:39:27;23.00;99.90
18613;DHT22;9436;52.152;21.032;2022-08-19T01:41:56;23.00;99.90
18613;DHT22;9436;52.152;21.032;2022-08-19T01:44:23;23.00;99.90
18613;DHT22;9436;52.152;21.032;2022-08-19T01:46:51;22.90;99.90
18613;DHT22;9436;52.152;21.032;2022-08-19T01:49:20;22.90;99.90
18613;DHT22;9436;52.152;21.032;2022-08-19T01:51:48;22.80;99.90
18613;DHT22;9436;52.152;21.032;2022-08-19T01:54:17;22.80;99.90
18613;DHT22;9436;52.152;21.032;2022-08-19T01:56:45;22.80;99.90
18613;DHT22;9436;52.152;21.032;2022-08-19T01:59:16;22.80;99.90
18613;DHT22;9436;52.152;21.032;2022-08-19T02:01:44;22.70;99.90
18613;DHT22;9436;52.152;21.032;2022-08-19T02:04:10;22.70;99.90
18613;DHT22;9436;52.152;21.032;2022-08-19T02:06:38;22.70;99.90
18613;DHT22;9436;52.152;21.032;2022-08-19T02:09:07;22.60;99.90
18613;DHT22;9436;52.152;21.032;2022-08-19T02:11:35;22.60;99.90
18613;DHT22;9436;52.152;21.032;2022-08-19T02:14:05;22.60;99.90
18613;DHT22;9436;52.152;21.032;2022-08-19T02:16:34;22.50;99.90
18613;DHT22;9436;52.152;21.032;2022-08-19T02:19:02;22.50;99.90
18613;DHT22;9436;52.152;21.032;2022-08-19T02:21:29;22.50;99.90
18613;DHT22;9436;52.152;21.032;2022-08-19T02:23:57;22.40;99.90
18613;DHT22;9436;52.152;21.032;2022-08-19T02:26:24;22.50;99.90
18613;DHT22;9436;52.152;21.032;2022-08-19T02:28:53;22.40;99.90
18613;DHT22;9436;52.152;21.032;2022-08-19T02:31:22;22.40;99.90
18613;DHT22;9436;52.152;21.032;2022-08-19T02:33:51;22.40;99.90
18613;DHT22;9436;52.152;21.032;2022-08-19T02:36:18;22.40;99.90
18613;DHT22;9436;52.152;21.032;2022-08-19T02:38:45;22.40;99.90
18613;DHT22;9436;52.152;21.032;2022-08-19T02:41:15;22.30;99.90
18613;DHT22;9436;52.152;21.032;2022-08-19T02:43:42;22.30;99.90
18613;DHT22;9436;52.152;21.032;2022-08-19T02:46:14;22.20;99.90
18613;DHT22;9436;52.152;21.032;2022-08-19T02:48:43;22.20;99.90
18613;DHT22;9436;52.152;21.032;2022-08-19T02:51:16;22.20;99.90
18613;DHT22;9436;52.152;21.032;2022-08-19T02:53:43;22.20;99.90
18613;DHT22;9436;52.152;21.032;2022-08-19T02:56:10;22.20;99.90
18613;DHT22;9436;52.152;21.032;2022-08-19T02:58:37;22.20;99.90
18613;DHT22;9436;52.152;21.032;2022-08-19T03:01:04;22.20;99.90
18613;DHT22;9436;52.152;21.032;2022-08-19T03:03:31;22.10;99.90
18613;DHT22;9436;52.152;21.032;2022-08-19T03:06:11;22.10;99.90
18613;DHT22;9436;52.152;21.032;2022-08-19T03:08:41;22.10;99.90
18613;DHT22;9436;52.152;21.032;2022-08-19T03:11:13;22.10;99.90
18613;DHT22;9436;52.152;21.032;2022-08-19T03:13:40;22.10;99.90
18613;DHT22;9436;52.152;21.032;2022-08-19T03:16:09;22.10;99.90
18613;DHT22;9436;52.152;21.032;2022-08-19T03:18:36;22.10;99.90
18613;DHT22;9436;52.152;21.032;2022-08-19T03:21:04;22.10;99.90
18613;DHT22;9436;52.152;21.032;2022-08-19T03:23:33;22.10;99.90
18613;DHT22;9436;52.152;21.032;2022-08-19T03:26:03;22.10;99.90
18613;DHT22;9436;52.152;21.032;2022-08-19T03:28:31;22.10;99.90
18613;DHT22;9436;52.152;21.032;2022-08-19T03:31:01;22.10;99.90
18613;DHT22;9436;52.152;21.032;2022-08-19T03:33:29;22.10;99.90
18613;DHT22;9436;52.152;21.032;2022-08-19T03:36:04;22.10;99.90
18613;DHT22;9436;52.152;21.032;2022-08-19T03:38:34;22.00;99.90
18613;DHT22;9436;52.152;21.032;2022-08-19T03:41:06;22.00;99.90
18613;DHT22;9436;52.152;21.032;2022-08-19T03:43:34;22.00;99.90
18613;DHT22;9436;52.152;21.032;2022-08-19T03:46:03;22.00;99.90
18613;DHT22;9436;52.152;21.032;2022-08-19T03:48:31;22.00;99.90
18613;DHT22;9436;52.152;21.032;2022-08-19T03:50:58;22.00;99.90
18613;DHT22;9436;52.152;21.032;2022-08-19T03:53:26;22.00;99.90
18613;DHT22;9436;52.152;21.032;2022-08-19T03:55:55;22.00;99.90
18613;DHT22;9436;52.152;21.032;2022-08-19T03:58:23;22.00;99.90
18613;DHT22;9436;52.152;21.032;2022-08-19T04:00:50;22.00;99.90
18613;DHT22;9436;52.152;21.032;2022-08-19T04:03:17;22.10;99.90
18613;DHT22;9436;52.152;21.032;2022-08-19T04:05:45;22.00;99.90
18613;DHT22;9436;52.152;21.032;2022-08-19T04:08:13;22.00;99.90
18613;DHT22;9436;52.152;21.032;2022-08-19T04:10:46;22.10;99.90
18613;DHT22;9436;52.152;21.032;2022-08-19T04:13:16;22.10;99.90
18613;DHT22;9436;52.152;21.032;2022-08-19T04:15:44;22.10;99.90
18613;DHT22;9436;52.152;21.032;2022-08-19T04:18:12;22.10;99.90
18613;DHT22;9436;52.152;21.032;2022-08-19T04:20:41;22.20;99.90
18613;DHT22;9436;52.152;21.032;2022-08-19T04:23:08;22.20;99.90
18613;DHT22;9436;52.152;21.032;2022-08-19T04:25:37;22.30;99.90
18613;DHT22;9436;52.152;21.032;2022-08-19T04:28:04;22.30;99.90
18613;DHT22;9436;52.152;21.032;2022-08-19T04:30:37;22.40;99.90
18613;DHT22;9436;52.152;21.032;2022-08-19T04:33:04;22.40;99.90
18613;DHT22;9436;52.152;21.032;2022-08-19T04:35:35;22.40;99.90
18613;DHT22;9436;52.152;21.032;2022-08-19T04:38:02;22.50;99.90
18613;DHT22;9436;52.152;21.032;2022-08-19T04:40:29;22.60;99.90
18613;DHT22;9436;52.152;21.032;2022-08-19T04:43:28;22.60;99.90
18613;DHT22;9436;52.152;21.032;2022-08-19T04:45:57;22.70;99.90
18613;DHT22;9436;52.152;21.032;2022-08-19T04:48:24;22.80;99.90
18613;DHT22;9436;52.152;21.032;2022-08-19T04:50:52;22.90;99.90
18613;DHT22;9436;52.152;21.032;2022-08-19T04:53:23;23.00;99.90
18613;DHT22;9436;52.152;21.032;2022-08-19T04:55:50;23.00;99.90
18613;DHT22;9436;52.152;21.032;2022-08-19T04:58:17;23.10;99.90
18613;DHT22;9436;52.152;21.032;2022-08-19T05:00:44;23.10;99.90
18613;DHT22;9436;52.152;21.032;2022-08-19T05:03:12;23.20;99.90
18613;DHT22;9436;52.152;21.032;2022-08-19T05:05:41;23.20;99.90
18613;DHT22;9436;52.152;21.032;2022-08-19T05:08:08;23.20;99.90
18613;DHT22;9436;52.152;21.032;2022-08-19T05:10:35;23.30;99.90
18613;DHT22;9436;52.152;21.032;2022-08-19T05:13:03;23.40;99.90
18613;DHT22;9436;52.152;21.032;2022-08-19T05:15:30;23.40;99.90
18613;DHT22;9436;52.152;21.032;2022-08-19T05:17:57;23.50;99.90
18613;DHT22;9436;52.152;21.032;2022-08-19T05:20:43;23.50;99.90
18613;DHT22;9436;52.152;21.032;2022-08-19T05:23:27;23.50;99.90
18613;DHT22;9436;52.152;21.032;2022-08-19T05:25:54;23.50;99.90
18613;DHT22;9436;52.152;21.032;2022-08-19T05:28:21;23.50;99.90
18613;DHT22;9436;52.152;21.032;2022-08-19T05:30:48;23.50;99.90
18613;DHT22;9436;52.152;21.032;2022-08-19T05:33:16;23.60;99.90
18613;DHT22;9436;52.152;21.032;2022-08-19T05:35:45;23.60;99.90
18613;DHT22;9436;52.152;21.032;2022-08-19T05:38:13;23.60;99.90
18613;DHT22;9436;52.152;21.032;2022-08-19T05:40:41;23.70;99.90
18613;DHT22;9436;52.152;21.032;2022-08-19T05:43:13;23.70;99.90
18613;DHT22;9436;52.152;21.032;2022-08-19T05:45:42;23.80;99.90
18613;DHT22;9436;52.152;21.032;2022-08-19T05:48:10;23.90;99.90
18613;DHT22;9436;52.152;21.032;2022-08-19T05:50:38;24.00;99.90
18613;DHT22;9436;52.152;21.032;2022-08-19T05:53:07;24.10;99.90
18613;DHT22;9436;52.152;21.032;2022-08-19T05:55:35;24.10;99.90
18613;DHT22;9436;52.152;21.032;2022-08-19T05:58:03;24.20;99.90
18613;DHT22;9436;52.152;21.032;2022-08-19T06:00:33;24.10;99.90
18613;DHT22;9436;52.152;21.032;2022-08-19T06:03:00;24.20;99.90
18613;DHT22;9436;52.152;21.032;2022-08-19T06:05:28;24.20;99.90
18613;DHT22;9436;52.152;21.032;2022-08-19T06:07:56;24.20;99.90
18613;DHT22;9436;52.152;21.032;2022-08-19T06:10:25;24.20;99.90
18613;DHT22;9436;52.152;21.032;2022-08-19T06:12:53;24.30;99.90
18613;DHT22;9436;52.152;21.032;2022-08-19T06:15:22;24.40;99.90
18613;DHT22;9436;52.152;21.032;2022-08-19T06:17:50;24.40;99.90
18613;DHT22;9436;52.152;21.032;2022-08-19T06:20:18;24.40;99.90
18613;DHT22;9436;52.152;21.032;2022-08-19T06:22:47;24.30;99.90
18613;DHT22;9436;52.152;21.032;2022-08-19T06:25:15;24.30;99.90
18613;DHT22;9436;52.152;21.032;2022-08-19T06:27:44;24.40;99.90
18613;DHT22;9436;52.152;21.032;2022-08-19T06:30:12;24.40;99.90
18613;DHT22;9436;52.152;21.032;2022-08-19T06:32:39;24.40;99.90
18613;DHT22;9436;52.152;21.032;2022-08-19T06:35:07;24.40;99.90
18613;DHT22;9436;52.152;21.032;2022-08-19T06:37:34;24.50;99.90
18613;DHT22;9436;52.152;21.032;2022-08-19T06:40:00;24.50;99.90
18613;DHT22;9436;52.152;21.032;2022-08-19T06:42:27;24.60;99.90
18613;DHT22;9436;52.152;21.032;2022-08-19T06:44:56;24.60;99.90
18613;DHT22;9436;52.152;21.032;2022-08-19T06:47:24;24.60;99.90
18613;DHT22;9436;52.152;21.032;2022-08-19T06:49:53;24.60;99.90
18613;DHT22;9436;52.152;21.032;2022-08-19T06:52:24;24.70;99.90
18613;DHT22;9436;52.152;21.032;2022-08-19T06:54:51;24.80;99.90
18613;DHT22;9436;52.152;21.032;2022-08-19T06:57:18;24.80;99.90
18613;DHT22;9436;52.152;21.032;2022-08-19T06:59:45;24.90;99.90
18613;DHT22;9436;52.152;21.032;2022-08-19T07:02:14;25.00;99.90
18613;DHT22;9436;52.152;21.032;2022-08-19T07:04:41;25.20;99.90
18613;DHT22;9436;52.152;21.032;2022-08-19T07:07:10;25.30;99.90
18613;DHT22;9436;52.152;21.032;2022-08-19T07:09:40;25.40;99.90
18613;DHT22;9436;52.152;21.032;2022-08-19T07:12:09;25.40;99.90
18613;DHT22;9436;52.152;21.032;2022-08-19T07:14:38;25.50;99.90
18613;DHT22;9436;52.152;21.032;2022-08-19T07:17:07;25.50;99.90
18613;DHT22;9436;52.152;21.032;2022-08-19T07:19:37;25.60;99.90
18613;DHT22;9436;52.152;21.032;2022-08-19T07:22:06;25.70;99.90
18613;DHT22;9436;52.152;21.032;2022-08-19T07:24:34;25.80;99.90
18613;DHT22;9436;52.152;21.032;2022-08-19T07:27:03;26.00;99.90
18613;DHT22;9436;52.152;21.032;2022-08-19T07:29:31;26.10;99.90
18613;DHT22;9436;52.152;21.032;2022-08-19T07:31:59;26.20;99.90
18613;DHT22;9436;52.152;21.032;2022-08-19T07:34:28;26.30;99.90
18613;DHT22;9436;52.152;21.032;2022-08-19T07:36:57;26.30;99.90
18613;DHT22;9436;52.152;21.032;2022-08-19T07:39:26;26.50;99.90
18613;DHT22;9436;52.152;21.032;2022-08-19T07:41:55;26.60;99.90
18613;DHT22;9436;52.152;21.032;2022-08-19T07:44:23;26.70;99.90
18613;DHT22;9436;52.152;21.032;2022-08-19T07:46:53;26.80;99.90
18613;DHT22;9436;52.152;21.032;2022-08-19T07:49:21;26.80;99.90
18613;DHT22;9436;52.152;21.032;2022-08-19T07:51:50;26.90;99.90
18613;DHT22;9436;52.152;21.032;2022-08-19T07:54:20;26.90;99.90
18613;DHT22;9436;52.152;21.032;2022-08-19T07:56:47;27.10;99.90
18613;DHT22;9436;52.152;21.032;2022-08-19T07:59:15;27.10;99.90
18613;DHT22;9436;52.152;21.032;2022-08-19T08:01:43;27.20;99.90
18613;DHT22;9436;52.152;21.032;2022-08-19T08:04:10;27.20;99.90
18613;DHT22;9436;52.152;21.032;2022-08-19T08:06:55;27.30;99.90
18613;DHT22;9436;52.152;21.032;2022-08-19T08:09:42;27.30;99.90
18613;DHT22;9436;52.152;21.032;2022-08-19T08:12:13;27.40;99.90
18613;DHT22;9436;52.152;21.032;2022-08-19T08:14:42;27.50;99.90
18613;DHT22;9436;52.152;21.032;2022-08-19T08:17:10;27.50;99.90
18613;DHT22;9436;52.152;21.032;2022-08-19T08:19:38;27.50;99.90
18613;DHT22;9436;52.152;21.032;2022-08-19T08:22:06;27.60;99.90
18613;DHT22;9436;52.152;21.032;2022-08-19T08:24:33;27.60;99.90
18613;DHT22;9436;52.152;21.032;2022-08-19T08:27:03;27.70;99.90
18613;DHT22;9436;52.152;21.032;2022-08-19T08:29:30;27.80;99.90
18613;DHT22;9436;52.152;21.032;2022-08-19T08:31:57;27.90;99.90
18613;DHT22;9436;52.152;21.032;2022-08-19T08:34:24;27.80;99.90
18613;DHT22;9436;52.152;21.032;2022-08-19T08:36:51;27.90;99.90
18613;DHT22;9436;52.152;21.032;2022-08-19T08:39:20;28.00;99.90
18613;DHT22;9436;52.152;21.032;2022-08-19T08:41:53;28.00;99.90
18613;DHT22;9436;52.152;21.032;2022-08-19T08:44:26;28.10;99.90
18613;DHT22;9436;52.152;21.032;2022-08-19T08:46:56;28.10;99.90
18613;DHT22;9436;52.152;21.032;2022-08-19T08:49:31;28.20;99.90
18613;DHT22;9436;52.152;21.032;2022-08-19T08:52:04;28.40;99.90
18613;DHT22;9436;52.152;21.032;2022-08-19T08:54:35;28.50;99.90
18613;DHT22;9436;52.152;21.032;2022-08-19T08:57:04;28.60;99.90
18613;DHT22;9436;52.152;21.032;2022-08-19T08:59:38;28.60;99.90
18613;DHT22;9436;52.152;21.032;2022-08-19T09:02:06;28.70;99.90
18613;DHT22;9436;52.152;21.032;2022-08-19T09:04:34;28.90;99.90
18613;DHT22;9436;52.152;21.032;2022-08-19T09:07:12;28.90;99.90
18613;DHT22;9436;52.152;21.032;2022-08-19T09:09:43;29.00;99.90
18613;DHT22;9436;52.152;21.032;2022-08-19T09:12:18;29.10;99.90
18613;DHT22;9436;52.152;21.032;2022-08-19T09:14:50;29.20;99.90
18613;DHT22;9436;52.152;21.032;2022-08-19T09:17:21;29.20;99.90
18613;DHT22;9436;52.152;21.032;2022-08-19T09:19:58;29.30;99.90
18613;DHT22;9436;52.152;21.032;2022-08-19T09:22:26;29.40;99.90
18613;DHT22;9436;52.152;21.032;2022-08-19T09:24:54;29.50;99.90
18613;DHT22;9436;52.152;21.032;2022-08-19T09:27:22;29.50;99.90
18613;DHT22;9436;52.152;21.032;2022-08-19T09:29:52;29.60;99.90
18613;DHT22;9436;52.152;21.032;2022-08-19T09:32:19;29.80;99.90
18613;DHT22;9436;52.152;21.032;2022-08-19T09:34:46;29.80;99.90
18613;DHT22;9436;52.152;21.032;2022-08-19T09:37:13;29.80;99.90
18613;DHT22;9436;52.152;21.032;2022-08-19T09:39:41;29.90;99.90
18613;DHT22;9436;52.152;21.032;2022-08-19T09:42:08;29.90;99.90
18613;DHT22;9436;52.152;21.032;2022-08-19T09:44:38;30.00;99.90
18613;DHT22;9436;52.152;21.032;2022-08-19T09:47:06;30.10;99.90
18613;DHT22;9436;52.152;21.032;2022-08-19T09:49:36;30.00;99.90
18613;DHT22;9436;52.152;21.032;2022-08-19T09:52:04;30.10;99.90
18613;DHT22;9436;52.152;21.032;2022-08-19T09:54:33;30.10;99.90
18613;DHT22;9436;52.152;21.032;2022-08-19T09:57:00;30.30;99.90
18613;DHT22;9436;52.152;21.032;2022-08-19T09:59:28;30.40;99.90
18613;DHT22;9436;52.152;21.032;2022-08-19T10:01:55;30.50;99.90
18613;DHT22;9436;52.152;21.032;2022-08-19T10:04:24;30.60;99.90
18613;DHT22;9436;52.152;21.032;2022-08-19T10:07:11;30.80;99.90
18613;DHT22;9436;52.152;21.032;2022-08-19T10:09:38;30.90;99.90
18613;DHT22;9436;52.152;21.032;2022-08-19T10:12:07;30.90;99.90
18613;DHT22;9436;52.152;21.032;2022-08-19T10:14:34;30.80;99.90
18613;DHT22;9436;52.152;21.032;2022-08-19T10:17:02;30.90;99.90
18613;DHT22;9436;52.152;21.032;2022-08-19T10:19:30;30.80;99.90
18613;DHT22;9436;52.152;21.032;2022-08-19T10:22:03;30.90;99.90
18613;DHT22;9436;52.152;21.032;2022-08-19T10:24:30;31.00;99.90
18613;DHT22;9436;52.152;21.032;2022-08-19T10:26:57;31.00;99.90
18613;DHT22;9436;52.152;21.032;2022-08-19T10:29:24;31.00;99.90
18613;DHT22;9436;52.152;21.032;2022-08-19T10:31:53;31.00;99.90
18613;DHT22;9436;52.152;21.032;2022-08-19T10:34:21;31.10;99.90
18613;DHT22;9436;52.152;21.032;2022-08-19T10:36:49;31.10;99.90
18613;DHT22;9436;52.152;21.032;2022-08-19T10:39:17;31.10;99.90
18613;DHT22;9436;52.152;21.032;2022-08-19T10:41:43;31.10;99.90
18613;DHT22;9436;52.152;21.032;2022-08-19T10:44:12;31.00;99.90
18613;DHT22;9436;52.152;21.032;2022-08-19T10:46:43;31.10;99.90
18613;DHT22;9436;52.152;21.032;2022-08-19T10:49:13;31.10;99.90
18613;DHT22;9436;52.152;21.032;2022-08-19T10:51:40;31.20;99.90
18613;DHT22;9436;52.152;21.032;2022-08-19T10:54:27;31.40;99.90
18613;DHT22;9436;52.152;21.032;2022-08-19T10:57:08;31.50;99.90
18613;DHT22;9436;52.152;21.032;2022-08-19T10:59:35;31.60;99.90
18613;DHT22;9436;52.152;21.032;2022-08-19T11:02:06;31.60;99.90
18613;DHT22;9436;52.152;21.032;2022-08-19T11:04:35;31.70;99.90
18613;DHT22;9436;52.152;21.032;2022-08-19T11:07:03;31.80;99.90
18613;DHT22;9436;52.152;21.032;2022-08-19T11:09:36;31.80;99.90
18613;DHT22;9436;52.152;21.032;2022-08-19T11:12:05;31.90;99.90
18613;DHT22;9436;52.152;21.032;2022-08-19T11:14:34;31.80;99.90
18613;DHT22;9436;52.152;21.032;2022-08-19T11:17:02;31.90;99.90
18613;DHT22;9436;52.152;21.032;2022-08-19T11:19:30;32.00;99.90
18613;DHT22;9436;52.152;21.032;2022-08-19T11:21:57;32.00;99.90
18613;DHT22;9436;52.152;21.032;2022-08-19T11:24:28;31.90;99.90
18613;DHT22;9436;52.152;21.032;2022-08-19T11:27:04;32.00;99.90
18613;DHT22;9436;52.152;21.032;2022-08-19T11:29:32;32.10;99.90
18613;DHT22;9436;52.152;21.032;2022-08-19T11:32:02;32.10;99.90
18613;DHT22;9436;52.152;21.032;2022-08-19T11:34:30;32.10;99.90
18613;DHT22;9436;52.152;21.032;2022-08-19T11:36:57;32.20;99.90
18613;DHT22;9436;52.152;21.032;2022-08-19T11:39:27;32.30;99.90
18613;DHT22;9436;52.152;21.032;2022-08-19T11:41:54;32.30;99.90
18613;DHT22;9436;52.152;21.032;2022-08-19T11:44:22;32.20;99.90
18613;DHT22;9436;52.152;21.032;2022-08-19T11:46:49;32.20;99.90
18613;DHT22;9436;52.152;21.032;2022-08-19T11:49:19;32.30;99.90
18613;DHT22;9436;52.152;21.032;2022-08-19T11:51:46;32.40;99.90
18613;DHT22;9436;52.152;21.032;2022-08-19T11:54:16;32.50;99.90
18613;DHT22;9436;52.152;21.032;2022-08-19T11:56:44;32.60;99.90
18613;DHT22;9436;52.152;21.032;2022-08-19T11:59:13;32.60;99.90
18613;DHT22;9436;52.152;21.032;2022-08-19T12:01:41;32.70;99.90
18613;DHT22;9436;52.152;21.032;2022-08-19T12:04:09;32.70;99.90
18613;DHT22;9436;52.152;21.032;2022-08-19T12:06:38;32.70;99.90
18613;DHT22;9436;52.152;21.032;2022-08-19T12:09:07;32.80;99.90
18613;DHT22;9436;52.152;21.032;2022-08-19T12:11:35;32.80;99.90
18613;DHT22;9436;52.152;21.032;2022-08-19T12:14:02;32.80;99.90
18613;DHT22;9436;52.152;21.032;2022-08-19T12:16:30;32.90;99.90
18613;DHT22;9436;52.152;21.032;2022-08-19T12:19:00;32.80;99.90
18613;DHT22;9436;52.152;21.032;2022-08-19T12:21:30;32.90;99.90
18613;DHT22;9436;52.152;21.032;2022-08-19T12:23:58;33.00;99.90
18613;DHT22;9436;52.152;21.032;2022-08-19T12:26:27;33.00;99.90
18613;DHT22;9436;52.152;21.032;2022-08-19T12:28:54;33.10;99.90
18613;DHT22;9436;52.152;21.032;2022-08-19T12:31:21;33.20;99.90
18613;DHT22;9436;52.152;21.032;2022-08-19T12:33:48;33.10;99.90
18613;DHT22;9436;52.152;21.032;2022-08-19T12:36:19;33.20;99.90
18613;DHT22;9436;52.152;21.032;2022-08-19T12:38:47;33.20;99.90
18613;DHT22;9436;52.152;21.032;2022-08-19T12:41:15;33.10;99.90
18613;DHT22;9436;52.152;21.032;2022-08-19T12:43:44;33.20;99.90
18613;DHT22;9436;52.152;21.032;2022-08-19T12:46:11;33.30;99.90
18613;DHT22;9436;52.152;21.032;2022-08-19T12:48:39;33.20;99.90
18613;DHT22;9436;52.152;21.032;2022-08-19T12:51:08;33.20;99.90
18613;DHT22;9436;52.152;21.032;2022-08-19T12:53:37;33.30;99.90
18613;DHT22;9436;52.152;21.032;2022-08-19T12:56:04;33.30;99.90
18613;DHT22;9436;52.152;21.032;2022-08-19T12:58:31;33.20;99.90
18613;DHT22;9436;52.152;21.032;2022-08-19T13:01:00;33.20;99.90
18613;DHT22;9436;52.152;21.032;2022-08-19T13:03:26;33.20;99.90
18613;DHT22;9436;52.152;21.032;2022-08-19T13:05:55;33.10;99.90
18613;DHT22;9436;52.152;21.032;2022-08-19T13:08:22;33.10;99.90
18613;DHT22;9436;52.152;21.032;2022-08-19T13:10:50;33.20;99.90
18613;DHT22;9436;52.152;21.032;2022-08-19T13:13:19;33.20;99.90
18613;DHT22;9436;52.152;21.032;2022-08-19T13:15:45;33.30;99.90
18613;DHT22;9436;52.152;21.032;2022-08-19T13:18:13;33.30;99.90
18613;DHT22;9436;52.152;21.032;2022-08-19T13:20:40;33.30;99.90
18613;DHT22;9436;52.152;21.032;2022-08-19T13:23:07;33.20;99.90
18613;DHT22;9436;52.152;21.032;2022-08-19T13:25:36;33.20;99.90
18613;DHT22;9436;52.152;21.032;2022-08-19T13:28:04;33.30;99.90
18613;DHT22;9436;52.152;21.032;2022-08-19T13:30:32;33.30;99.90
18613;DHT22;9436;52.152;21.032;2022-08-19T13:33:17;33.50;99.90
18613;DHT22;9436;52.152;21.032;2022-08-19T13:35:47;33.50;99.90
18613;DHT22;9436;52.152;21.032;2022-08-19T13:38:15;33.50;99.90
18613;DHT22;9436;52.152;21.032;2022-08-19T13:40:43;33.50;99.90
18613;DHT22;9436;52.152;21.032;2022-08-19T13:43:11;33.40;99.90
18613;DHT22;9436;52.152;21.032;2022-08-19T13:45:39;33.40;99.90
18613;DHT22;9436;52.152;21.032;2022-08-19T13:48:07;33.40;99.90
18613;DHT22;9436;52.152;21.032;2022-08-19T13:50:38;33.50;99.90
18613;DHT22;9436;52.152;21.032;2022-08-19T13:53:07;33.40;99.90
18613;DHT22;9436;52.152;21.032;2022-08-19T13:55:35;33.40;99.90
18613;DHT22;9436;52.152;21.032;2022-08-19T13:58:03;33.40;99.90
18613;DHT22;9436;52.152;21.032;2022-08-19T14:00:33;33.30;99.90
18613;DHT22;9436;52.152;21.032;2022-08-19T14:03:04;33.30;99.90
18613;DHT22;9436;52.152;21.032;2022-08-19T14:05:32;33.40;99.90
18613;DHT22;9436;52.152;21.032;2022-08-19T14:07:59;33.40;99.90
18613;DHT22;9436;52.152;21.032;2022-08-19T14:10:27;33.40;99.90
18613;DHT22;9436;52.152;21.032;2022-08-19T14:12:58;33.40;99.90
18613;DHT22;9436;52.152;21.032;2022-08-19T14:15:26;33.30;99.90
18613;DHT22;9436;52.152;21.032;2022-08-19T14:17:55;33.30;99.90
18613;DHT22;9436;52.152;21.032;2022-08-19T14:20:22;33.20;99.90
18613;DHT22;9436;52.152;21.032;2022-08-19T14:22:49;33.30;99.90
18613;DHT22;9436;52.152;21.032;2022-08-19T14:25:20;33.30;99.90
18613;DHT22;9436;52.152;21.032;2022-08-19T14:27:48;33.30;99.90
18613;DHT22;9436;52.152;21.032;2022-08-19T14:30:21;33.30;99.90
18613;DHT22;9436;52.152;21.032;2022-08-19T14:32:48;33.40;99.90
18613;DHT22;9436;52.152;21.032;2022-08-19T14:35:16;33.30;99.90
18613;DHT22;9436;52.152;21.032;2022-08-19T14:37:45;33.10;99.90
18613;DHT22;9436;52.152;21.032;2022-08-19T14:40:12;33.10;99.90
18613;DHT22;9436;52.152;21.032;2022-08-19T14:42:40;33.00;99.90
18613;DHT22;9436;52.152;21.032;2022-08-19T14:45:08;33.00;99.90
18613;DHT22;9436;52.152;21.032;2022-08-19T14:47:35;33.00;99.90
18613;DHT22;9436;52.152;21.032;2022-08-19T14:50:04;32.90;99.90
18613;DHT22;9436;52.152;21.032;2022-08-19T14:52:33;32.80;99.90
18613;DHT22;9436;52.152;21.032;2022-08-19T14:55:00;32.80;99.90
18613;DHT22;9436;52.152;21.032;2022-08-19T14:57:27;32.70;99.90
18613;DHT22;9436;52.152;21.032;2022-08-19T14:59:53;32.70;99.90
18613;DHT22;9436;52.152;21.032;2022-08-19T15:02:20;32.60;99.90
18613;DHT22;9436;52.152;21.032;2022-08-19T15:04:47;32.50;99.90
18613;DHT22;9436;52.152;21.032;2022-08-19T15:07:16;32.60;99.90
18613;DHT22;9436;52.152;21.032;2022-08-19T15:09:44;32.50;99.90
18613;DHT22;9436;52.152;21.032;2022-08-19T15:12:11;32.50;99.90
18613;DHT22;9436;52.152;21.032;2022-08-19T15:14:38;32.40;99.90
18613;DHT22;9436;52.152;21.032;2022-08-19T15:17:07;32.40;99.90
18613;DHT22;9436;52.152;21.032;2022-08-19T15:19:34;32.20;99.90
18613;DHT22;9436;52.152;21.032;2022-08-19T15:22:02;32.20;99.90
18613;DHT22;9436;52.152;21.032;2022-08-19T15:24:29;32.10;99.90
18613;DHT22;9436;52.152;21.032;2022-08-19T15:26:57;32.10;99.90
18613;DHT22;9436;52.152;21.032;2022-08-19T15:29:24;32.00;99.90
18613;DHT22;9436;52.152;21.032;2022-08-19T15:31:52;32.00;99.90
18613;DHT22;9436;52.152;21.032;2022-08-19T15:34:20;31.90;99.90
18613;DHT22;9436;52.152;21.032;2022-08-19T15:36:47;31.90;99.90
18613;DHT22;9436;52.152;21.032;2022-08-19T15:39:15;31.90;99.90